CheckWX is a tool to help pilots better visualize weather data.  It is not intended as a substitute for an official pre-flight weather briefing.

21:34:32 UTC

KLOM METAR
Wings Field Airport
Philadelphia, Pennsylvania, USA
Current

20 mins ago

KLOM 052115Z AUTO 29005KT 10SM BKN085 19/07 A2999 RMK AO2 T01870072
Observed
Apr-5 @ 21:15 UTC
Wind
  • 290° at 5 KTS
Visibility
Flight Rules
VFR
Cloud Levels
  • Broken at 8,500' AGL
Temperature
19°C / 66°F
Dewpoint
C / 45°F
Humidity
46%
Altimeter
29.99" Hg
Pressure
1015.62 hPa
Previous

40 mins ago

KLOM 052055Z AUTO 24006KT 10SM OVC085 19/07 A2999 RMK AO2 T01860069
Observed
Apr-5 @ 20:55 UTC
Wind
  • 240° at 6 KTS
Visibility
Flight Rules
VFR
Cloud Levels
  • Overcast at 8,500' AGL
Temperature
19°C / 66°F
Dewpoint
C / 45°F
Humidity
46%
Altimeter
29.99" Hg
Pressure
1015.62 hPa
Previous

60 mins ago

KLOM 052035Z AUTO 27006KT 10SM SCT060 OVC085 18/07 A2999 RMK AO2 T01840068
Observed
Apr-5 @ 20:35 UTC
Wind
  • 270° at 6 KTS
Visibility
Flight Rules
VFR
Cloud Levels
  • Scattered at 6,000' AGL
  • Overcast at 8,500' AGL
Temperature
18°C / 64°F
Dewpoint
C / 45°F
Humidity
49%
Altimeter
29.99" Hg
Pressure
1015.62 hPa